Карточка аэропорта UAKK

Внимание!
Информация на этой странице в стадии наполнения.
Если вы не увидели какой-то информации, или заметили неточность - пожалуйста сообщите нам!
Спасибо!
Команда RU-STAFF
Название аэропортаКараганда
Название аэропорта (англ.)Karaganda
Превышение1768 ft. (538.9 m.)
Координаты49°40.302', 73°20.118'
Высота перехода10000
Эшелон переходаby ATC
Коды ответчика0630-0637, 7220-7227
Зона ОрВДНур-Султан РПИ (UACN)
Данные METARUAKK 091000Z 04007MPS 4000 -SN DRSN BKN006 OVC040 M16/M19 Q1009 NOSIG RMK QBB180 QFE710/0946
Проноз погоды (TAF)UAKK 090659Z 0907/1006 02007MPS 4000 -SN DRSN BKN020 BKN030 TXM14/0909Z TNM27/1001Z TEMPO 0907/0914 03011MPS 1500 SN BLSN BKN007 FM091400 VRB02MPS 5000 BR BKN011 BKN020 TEMPO 0914/1003 3100 IC BR SCT004
NOTAMshow/hide NOTAM
AWOS   TABLE

Информация о ВПП

ВПП Длина ВПП (м.) Покрытие Курс ВПП Частота ILS
053601Железобетон50109.9
233601Железобетон230111.7

Диспетчерские позиции




Спутниковое изображение